Time;durP1;ratioP1;P1;durP2;ratioP2;P2;SDS_P1;SDS_P2;PMS_P1;PMS_P2;Temp;Humidity;BMP_temperature;BMP_pressure;BME280_temperature;BME280_humidity;BME280_pressure;Samples;Min_cycle;Max_cycle;Signal;HPM_P1;HPM_P2
2023/02/04 00:04:39;;;;;;;7.72;0.80;;;4.40;99.90;;;;;;5721517;24;20030;31
2023/02/04 00:07:10;;;;;;;7.45;1.00;;;4.40;99.90;;;;;;4763253;30;20128;-78
2023/02/04 00:09:52;;;;;;;8.13;1.33;;;4.60;99.90;;;;;;4773236;24;20059;-78
2023/02/04 00:12:36;;;;;;;5.43;0.63;;;4.70;99.90;;;;;;4951983;24;20063;-79
2023/02/04 00:18:29;;;;;;;9.73;1.27;;;4.60;99.90;;;;;;5219540;24;20037;31
2023/02/04 00:20:59;;;;;;;4.25;1.08;;;4.80;99.90;;;;;;4789140;29;20079;-78
2023/02/04 00:23:30;;;;;;;4.13;0.93;;;4.70;99.90;;;;;;4787394;30;20069;-78
2023/02/04 00:26:11;;;;;;;5.55;1.17;;;4.80;99.90;;;;;;4890255;24;20106;-77
2023/02/04 00:28:40;;;;;;;3.30;0.43;;;3.90;99.90;;;;;;4754639;30;20044;-78
2023/02/04 00:31:09;;;;;;;4.85;0.65;;;4.80;99.90;;;;;;4766822;30;20028;-78
2023/02/04 00:34:03;;;;;;;5.97;1.20;;;4.90;99.90;;;;;;4833083;24;20067;-79
2023/02/04 00:36:53;;;;;;;6.60;1.33;;;3.90;99.90;;;;;;5178584;24;20076;-78
2023/02/04 00:43:08;;;;;;;6.70;1.30;;;4.80;99.90;;;;;;4751677;30;20040;-78
2023/02/04 00:45:55;;;;;;;7.85;1.35;;;4.80;99.90;;;;;;4813289;24;20036;-79
2023/02/04 00:48:35;;;;;;;5.30;0.68;;;4.70;99.90;;;;;;4770342;30;20052;-78
2023/02/04 00:55:11;;;;;;;8.25;0.98;;;4.90;99.90;;;;;;5629699;24;20047;-79
2023/02/04 00:58:11;;;;;;;3.72;0.75;;;5.20;99.90;;;;;;4935898;24;20070;-78
2023/02/04 01:00:53;;;;;;;6.50;1.15;;;4.90;99.90;;;;;;4795454;24;20112;-79
2023/02/04 01:03:36;;;;;;;7.63;1.60;;;4.90;99.90;;;;;;5335518;24;21034;31
2023/02/04 01:06:06;;;;;;;5.50;1.25;;;4.90;99.90;;;;;;5276272;24;20034;-79
2023/02/04 01:09:15;;;;;;;2.42;0.70;;;4.70;99.90;;;;;;4780738;29;20136;-78
2023/02/04 01:12:15;;;;;;;8.02;1.00;;;4.70;99.90;;;;;;4900641;24;20103;-78
2023/02/04 01:16:34;;;;;;;6.22;0.85;;;4.90;99.90;;;;;;4828218;24;20052;-78
2023/02/04 01:19:25;;;;;;;3.55;1.27;;;4.90;99.90;;;;;;4775450;30;20093;-78
2023/02/04 01:22:46;;;;;;;8.23;1.55;;;5.00;99.90;;;;;;4781806;24;20063;-78
2023/02/04 01:29:24;;;;;;;6.18;1.27;;;4.90;99.90;;;;;;4788038;29;20127;-78
2023/02/04 01:32:47;;;;;;;6.38;0.70;;;5.10;99.90;;;;;;4767060;30;20036;-78
2023/02/04 01:35:28;;;;;;;4.43;0.73;;;5.10;99.90;;;;;;4696227;30;20061;-78
2023/02/04 01:38:03;;;;;;;5.22;0.80;;;5.90;99.90;;;;;;4712646;30;20033;-78
2023/02/04 01:44:18;;;;;;;6.55;0.93;;;5.00;99.90;;;;;;4855407;24;20080;-78
2023/02/04 01:46:52;;;;;;;6.25;2.10;;;5.20;99.90;;;;;;4734749;30;20067;-78
2023/02/04 01:49:40;;;;;;;5.95;1.25;;;5.20;99.90;;;;;;4852050;24;20083;-79
2023/02/04 01:52:52;;;;;;;5.50;0.95;;;5.10;99.90;;;;;;4761521;29;20081;-78
2023/02/04 01:55:29;;;;;;;7.07;1.00;;;5.40;99.90;;;;;;4705094;30;20071;-78
2023/02/04 01:58:31;;;;;;;6.28;0.60;;;5.30;99.90;;;;;;4687180;30;20049;-78
2023/02/04 02:01:54;;;;;;;8.70;1.65;;;5.30;99.90;;;;;;4683522;30;20030;-78
2023/02/04 02:04:38;;;;;;;9.32;0.77;;;5.20;99.90;;;;;;4655550;30;20050;-78
2023/02/04 02:07:51;;;;;;;6.85;1.08;;;5.40;99.90;;;;;;4803669;24;20048;-78
2023/02/04 02:10:30;;;;;;;7.97;0.77;;;5.30;99.90;;;;;;5067051;24;21031;-79
2023/02/04 02:13:21;;;;;;;7.03;1.17;;;5.20;99.90;;;;;;4696891;30;20078;-77
2023/02/04 02:15:49;;;;;;;6.65;0.75;;;5.10;99.90;;;;;;4714936;30;20049;-78
2023/02/04 02:18:29;;;;;;;4.88;0.85;;;5.20;99.90;;;;;;4757870;24;20076;31
2023/02/04 02:21:13;;;;;;;3.90;0.93;;;4.60;99.90;;;;;;5090717;24;20102;-78
2023/02/04 02:24:04;;;;;;;5.35;0.90;;;5.30;99.90;;;;;;4997453;24;20059;-79
2023/02/04 02:26:47;;;;;;;8.48;0.80;;;5.20;99.90;;;;;;4746519;30;20031;-79
2023/02/04 02:33:14;;;;;;;6.30;0.75;;;5.30;99.90;;;;;;5062197;24;20062;-79
2023/02/04 02:36:17;;;;;;;4.20;1.05;;;5.30;99.90;;;;;;4716728;30;20085;-78
2023/02/04 02:39:06;;;;;;;8.50;1.02;;;5.30;99.90;;;;;;4714946;30;20112;-78
2023/02/04 02:41:38;;;;;;;6.25;1.40;;;5.50;99.90;;;;;;4752068;30;20116;-78
2023/02/04 02:44:33;;;;;;;2.80;0.68;;;5.40;99.90;;;;;;4830469;24;20066;-78
2023/02/04 02:48:01;;;;;;;10.00;2.17;;;5.50;99.90;;;;;;5049550;24;21117;31
2023/02/04 02:51:01;;;;;;;3.58;0.45;;;5.30;99.90;;;;;;4716470;30;20061;-78
2023/02/04 02:54:08;;;;;;;6.83;0.93;;;5.20;99.90;;;;;;5147477;24;20037;31
2023/02/04 02:57:10;;;;;;;2.38;0.40;;;5.20;99.90;;;;;;4752424;30;20278;-78
2023/02/04 03:00:43;;;;;;;4.18;0.52;;;5.30;99.90;;;;;;4689809;30;20054;-78
2023/02/04 03:06:58;;;;;;;5.57;0.73;;;5.50;99.90;;;;;;5039198;24;20067;-79
2023/02/04 03:16:20;;;;;;;6.10;1.58;;;5.30;99.90;;;;;;5011050;24;20085;-78
2023/02/04 03:19:26;;;;;;;8.18;1.80;;;5.30;99.90;;;;;;4756983;30;20036;-78
2023/02/04 03:26:12;;;;;;;6.55;0.60;;;5.40;99.90;;;;;;5362168;24;20141;-78
2023/02/04 03:29:00;;;;;;;2.63;0.40;;;5.20;99.90;;;;;;5098517;24;21074;-77
2023/02/04 03:31:54;;;;;;;5.20;0.50;;;5.30;99.90;;;;;;5197268;24;20026;-77
2023/02/04 03:34:30;;;;;;;6.32;1.08;;;4.40;99.90;;;;;;4694999;30;20057;-78
2023/02/04 03:37:03;;;;;;;4.25;0.50;;;5.30;99.90;;;;;;4758295;24;20048;-78
2023/02/04 03:39:47;;;;;;;2.08;0.60;;;5.10;99.90;;;;;;4766191;29;20052;-78
2023/02/04 03:42:21;;;;;;;6.18;0.93;;;5.40;99.90;;;;;;4903198;24;20082;-78
2023/02/04 03:51:01;;;;;;;5.32;0.60;;;5.30;99.90;;;;;;5265517;24;20465;-78
2023/02/04 03:56:17;;;;;;;4.75;1.08;;;5.20;99.90;;;;;;4783827;30;20047;-77
2023/02/04 03:59:56;;;;;;;8.45;1.38;;;4.80;99.90;;;;;;4643490;24;20305;-78
2023/02/04 04:02:44;;;;;;;1.30;0.20;;;5.30;99.90;;;;;;4784996;24;20080;31
2023/02/04 04:05:45;;;;;;;4.93;1.17;;;5.30;99.90;;;;;;4765441;24;19911;31
2023/02/04 04:16:04;;;;;;;6.25;1.52;;;5.20;99.90;;;;;;2028691;24;20317;-78
2023/02/04 04:21:57;;;;;;;6.60;1.65;;;5.20;99.90;;;;;;5176510;24;19940;-78
2023/02/04 04:34:08;;;;;;;5.60;1.05;;;5.30;99.90;;;;;;4806199;29;20068;-77
2023/02/04 04:48:31;;;;;;;3.13;0.30;;;5.20;99.90;;;;;;4409310;24;20056;-79
2023/02/04 04:52:09;;;;;;;6.82;0.85;;;5.10;99.90;;;;;;2886815;24;20405;-77
2023/02/04 04:54:38;;;;;;;5.18;0.80;;;5.30;99.90;;;;;;4753238;30;20052;-78
2023/02/04 04:58:12;;;;;;;4.50;0.40;;;5.40;99.90;;;;;;4942984;24;20098;-78
2023/02/04 05:00:45;;;;;;;5.50;1.17;;;5.00;99.90;;;;;;4694851;30;20101;-78
2023/02/04 05:03:57;;;;;;;;;;;5.40;99.90;;;;;;4700744;30;20051;-78
2023/02/04 05:07:13;;;;;;;3.35;1.17;;;5.50;99.90;;;;;;4680499;30;19940;-79
2023/02/04 05:09:53;;;;;;;4.20;0.98;;;5.50;99.90;;;;;;4667460;30;20057;-78
2023/02/04 05:12:46;;;;;;;5.60;1.95;;;5.60;99.90;;;;;;4962586;24;20053;-77
2023/02/04 05:15:51;;;;;;;4.07;0.80;;;5.40;99.90;;;;;;5143870;24;20052;31
2023/02/04 05:18:55;;;;;;;6.22;1.63;;;4.40;99.90;;;;;;4778234;24;20532;-78
2023/02/04 05:25:03;;;;;;;4.95;0.80;;;5.50;99.90;;;;;;5106386;24;20058;-78
2023/02/04 05:39:09;;;;;;;8.88;1.85;;;5.50;99.90;;;;;;5688262;24;21087;31
2023/02/04 05:45:19;;;;;;;8.07;1.85;;;5.50;99.90;;;;;;5274958;24;20062;31
2023/02/04 05:48:52;;;;;;;1.88;0.43;;;5.50;99.90;;;;;;5633037;24;20335;-79
2023/02/04 05:51:23;;;;;;;4.57;0.40;;;5.40;99.90;;;;;;4753831;29;20032;-78
2023/02/04 05:53:56;;;;;;;1.95;0.47;;;5.50;99.90;;;;;;5101225;24;20063;-77
2023/02/04 05:56:57;;;;;;;2.75;0.65;;;5.50;99.90;;;;;;4754080;30;20031;-77
2023/02/04 05:59:51;;;;;;;2.70;0.30;;;5.60;99.90;;;;;;4752330;30;20071;-78
2023/02/04 06:03:04;;;;;;;2.10;0.17;;;5.50;99.90;;;;;;4717233;30;20081;-79
2023/02/04 06:05:49;;;;;;;1.48;0.65;;;5.40;99.90;;;;;;4992487;24;20126;-78
2023/02/04 06:09:14;;;;;;;3.28;0.10;;;5.40;99.90;;;;;;4706137;30;20378;-78
2023/02/04 06:12:49;;;;;;;1.83;0.22;;;5.30;99.90;;;;;;4912727;24;20067;-78
2023/02/04 06:16:07;;;;;;;2.97;0.82;;;5.30;99.90;;;;;;3711662;24;20905;31
2023/02/04 06:19:27;;;;;;;4.63;0.90;;;5.50;99.90;;;;;;4774012;30;19989;-78
2023/02/04 06:22:32;;;;;;;2.05;0.30;;;5.10;99.90;;;;;;5092404;24;20064;-78
2023/02/04 06:25:12;;;;;;;1.40;0.50;;;5.20;99.90;;;;;;4753836;30;20079;-78
2023/02/04 06:31:38;;;;;;;1.33;0.68;;;5.10;99.90;;;;;;4908910;24;20063;-76
2023/02/04 06:38:54;;;;;;;2.50;0.32;;;3.80;99.90;;;;;;4852206;24;21162;-79
2023/02/04 06:42:33;;;;;;;;;;;4.60;99.90;;;;;;4710735;30;20034;-78
2023/02/04 06:46:28;;;;;;;1.77;0.43;;;4.70;99.90;;;;;;4686061;30;19959;-79
2023/02/04 06:57:02;;;;;;;0.88;0.30;;;4.20;99.90;;;;;;4738077;30;20052;-78
2023/02/04 07:00:05;;;;;;;0.45;0.20;;;4.50;99.60;;;;;;4804427;29;20081;-78
2023/02/04 07:03:44;;;;;;;4.57;0.80;;;4.50;99.30;;;;;;4791117;29;20035;-78
2023/02/04 07:09:44;;;;;;;0.88;0.40;;;4.50;99.50;;;;;;4695665;30;20075;-78
2023/02/04 07:12:34;;;;;;;4.40;0.40;;;4.40;99.40;;;;;;4716141;30;20063;-78
2023/02/04 07:15:34;;;;;;;1.48;0.50;;;4.40;98.90;;;;;;4693970;30;20094;-78
2023/02/04 07:18:42;;;;;;;1.10;0.55;;;4.40;98.90;;;;;;4708245;30;20080;-77
2023/02/04 07:21:15;;;;;;;0.95;0.17;;;4.20;98.30;;;;;;4715619;30;20061;-77
2023/02/04 07:24:26;;;;;;;1.15;0.40;;;4.50;98.40;;;;;;4699496;30;20113;-77
2023/02/04 07:27:36;;;;;;;1.08;0.30;;;4.20;97.60;;;;;;4697381;30;20041;-77
2023/02/04 07:31:44;;;;;;;1.75;0.73;;;4.40;97.00;;;;;;4679496;30;20061;-77
2023/02/04 07:34:26;;;;;;;2.75;1.10;;;4.50;96.90;;;;;;4627990;31;20051;-78
2023/02/04 07:36:58;;;;;;;2.05;0.95;;;4.40;96.80;;;;;;4640906;30;20043;-78
2023/02/04 07:40:01;;;;;;;3.83;1.33;;;4.30;96.80;;;;;;4607588;30;20126;-78
2023/02/04 07:42:55;;;;;;;4.82;2.10;;;4.20;96.90;;;;;;4639740;30;20070;-78
2023/02/04 07:45:37;;;;;;;6.30;2.70;;;4.10;97.10;;;;;;4649756;30;20123;-78
2023/02/04 07:48:05;;;;;;;7.95;3.55;;;4.10;96.80;;;;;;4641816;30;20051;-78
2023/02/04 07:51:02;;;;;;;2.03;0.85;;;4.00;96.90;;;;;;4645007;30;20063;-77
2023/02/04 07:54:12;;;;;;;11.73;4.90;;;3.80;97.00;;;;;;4627659;31;20079;-78
2023/02/04 07:57:19;;;;;;;5.70;2.88;;;3.70;96.90;;;;;;4630423;30;20019;-78
2023/02/04 08:00:26;;;;;;;4.70;2.65;;;3.70;96.80;;;;;;4641089;30;20027;-78
2023/02/04 08:03:03;;;;;;;10.63;6.38;;;3.60;96.80;;;;;;4776816;24;20071;-78
2023/02/04 08:06:11;;;;;;;8.05;4.70;;;3.70;96.80;;;;;;4759022;30;20032;-79
2023/02/04 08:08:45;;;;;;;18.33;9.95;;;3.60;96.00;;;;;;4731243;30;20029;-79
2023/02/04 08:11:34;;;;;;;28.13;13.27;;;3.50;96.10;;;;;;4714586;30;20037;-78
2023/02/04 08:14:41;;;;;;;24.10;13.07;;;3.70;95.60;;;;;;4737287;30;20519;-78
2023/02/04 08:17:31;;;;;;;13.02;8.82;;;4.00;94.60;;;;;;4700506;30;20051;-78
2023/02/04 08:20:33;;;;;;;4.28;1.60;;;3.90;93.70;;;;;;4715941;30;20077;-78
2023/02/04 08:23:40;;;;;;;17.63;4.43;;;4.20;93.60;;;;;;4720743;30;20060;-78
2023/02/04 08:26:12;;;;;;;6.20;2.50;;;4.20;93.00;;;;;;4718263;30;20076;-79
2023/02/04 08:29:20;;;;;;;4.10;2.80;;;4.20;92.70;;;;;;4715907;30;20060;-78
2023/02/04 08:32:25;;;;;;;9.15;3.05;;;4.30;92.60;;;;;;4640151;30;20059;-78
2023/02/04 08:35:36;;;;;;;8.32;3.83;;;4.00;92.40;;;;;;4647237;30;20055;-78
2023/02/04 08:38:06;;;;;;;7.93;3.78;;;4.10;92.60;;;;;;4625528;31;20083;-78
2023/02/04 08:40:36;;;;;;;9.35;6.50;;;4.10;92.30;;;;;;4615102;31;20059;-78
2023/02/04 08:43:08;;;;;;;5.25;3.28;;;4.10;92.20;;;;;;4611136;31;20035;-79
2023/02/04 08:45:46;;;;;;;;;;;3.90;92.20;;;;;;4614849;31;20064;-79
2023/02/04 08:48:26;;;;;;;6.75;3.25;;;3.80;92.10;;;;;;4599398;31;20007;-78
2023/02/04 08:51:02;;;;;;;2.95;1.55;;;4.10;92.50;;;;;;4612070;31;20041;-78
2023/02/04 08:54:32;;;;;;;4.22;1.88;;;3.70;92.30;;;;;;4606494;31;20110;-78
2023/02/04 08:57:26;;;;;;;4.80;2.72;;;3.60;92.00;;;;;;4596747;31;20056;-78
2023/02/04 09:00:37;;;;;;;4.50;2.17;;;3.80;92.70;;;;;;4612037;31;20056;-78
2023/02/04 09:03:43;;;;;;;5.53;2.33;;;3.80;91.80;;;;;;4611580;31;20044;-78
2023/02/04 09:06:51;;;;;;;7.40;1.80;;;3.90;92.00;;;;;;4632197;31;20063;-78
2023/02/04 09:09:52;;;;;;;3.63;2.30;;;4.00;91.20;;;;;;4640817;31;20077;-79
2023/02/04 09:13:14;;;;;;;7.20;3.38;;;4.00;90.90;;;;;;4550808;31;20141;-78
2023/02/04 09:16:35;;;;;;;6.93;5.13;;;4.10;90.90;;;;;;4564341;31;20065;-78
2023/02/04 09:19:09;;;;;;;3.92;2.60;;;3.80;90.50;;;;;;4574128;31;20528;-78
2023/02/04 09:21:59;;;;;;;5.95;2.97;;;4.40;90.80;;;;;;4578208;31;20049;-77
2023/02/04 09:24:39;;;;;;;3.03;2.05;;;4.20;90.10;;;;;;4587747;31;20052;-78
2023/02/04 09:27:52;;;;;;;6.10;3.40;;;4.90;90.60;;;;;;4613913;31;20111;-78
2023/02/04 09:31:13;;;;;;;4.18;2.00;;;4.30;89.90;;;;;;4609941;31;20066;-78
2023/02/04 09:34:23;;;;;;;3.35;1.65;;;4.40;89.80;;;;;;4611504;31;20064;-78
2023/02/04 09:37:14;;;;;;;5.82;1.90;;;4.60;89.20;;;;;;4700787;24;20052;-78
2023/02/04 09:41:16;;;;;;;2.33;1.10;;;4.80;89.10;;;;;;4725215;30;20137;-78
2023/02/04 09:44:18;;;;;;;8.75;3.63;;;4.80;87.30;;;;;;4605189;31;20055;-78
2023/02/04 09:47:37;;;;;;;3.85;1.50;;;4.70;86.40;;;;;;4679822;30;20101;-78
2023/02/04 09:50:25;;;;;;;3.63;1.20;;;4.90;85.00;;;;;;4679296;30;20081;-78
2023/02/04 09:53:23;;;;;;;6.90;2.45;;;4.80;84.00;;;;;;4790369;24;20141;-78
2023/02/04 09:56:19;;;;;;;3.07;1.53;;;4.70;84.60;;;;;;4711164;30;20053;-78
2023/02/04 10:00:26;;;;;;;2.67;1.30;;;4.70;84.20;;;;;;4738047;30;20098;-78
2023/02/04 10:03:04;;;;;;;5.45;1.13;;;4.60;83.10;;;;;;4743361;30;20104;-78
2023/02/04 10:06:24;;;;;;;4.93;1.50;;;4.60;81.80;;;;;;4688327;30;20134;-78
2023/02/04 10:09:15;;;;;;;3.00;1.30;;;4.70;82.10;;;;;;4641228;30;20046;-77
2023/02/04 10:15:34;;;;;;;2.80;1.08;;;4.50;82.00;;;;;;4655476;30;20167;-78
2023/02/04 10:19:37;;;;;;;9.73;3.45;;;4.40;81.50;;;;;;4785500;29;20443;-78
2023/02/04 10:22:33;;;;;;;2.72;0.90;;;5.10;81.40;;;;;;4798728;24;20038;-78
2023/02/04 10:25:21;;;;;;;5.28;1.30;;;4.40;81.30;;;;;;4724900;30;20041;-78
2023/02/04 10:28:02;;;;;;;2.63;0.60;;;4.50;81.20;;;;;;4750282;30;20056;-78
2023/02/04 10:30:45;;;;;;;1.60;0.55;;;4.40;80.00;;;;;;4737603;30;20108;-78
2023/02/04 10:34:32;;;;;;;1.10;0.40;;;3.30;79.10;;;;;;4714306;30;20049;-78
2023/02/04 10:37:47;;;;;;;1.95;0.40;;;4.20;80.30;;;;;;4642073;30;20074;-78
2023/02/04 10:44:16;;;;;;;2.00;0.50;;;5.00;79.10;;;;;;5080694;24;20082;-78
2023/02/04 10:47:24;;;;;;;1.92;0.90;;;4.30;77.90;;;;;;4750425;30;20080;-78
2023/02/04 10:50:25;;;;;;;3.10;0.68;;;4.50;77.20;;;;;;4920341;24;21017;-79
2023/02/04 11:03:41;;;;;;;2.90;1.08;;;4.50;75.40;;;;;;5047783;24;20047;-78
2023/02/04 11:09:38;;;;;;;5.78;2.70;;;5.10;76.10;;;;;;3229893;24;21193;-75
2023/02/04 11:16:43;;;;;;;3.40;1.00;;;4.90;76.50;;;;;;4748752;30;20134;-78
2023/02/04 11:30:59;;;;;;;2.85;0.47;;;4.80;74.00;;;;;;4769585;24;20084;-78
2023/02/04 11:34:18;;;;;;;1.67;0.40;;;5.00;71.70;;;;;;4976794;24;20039;-78
2023/02/04 11:51:39;;;;;;;1.98;0.30;;;4.90;72.90;;;;;;2626105;24;20041;31
2023/02/04 11:54:51;;;;;;;1.77;0.75;;;4.90;72.90;;;;;;4733285;30;20045;-79
2023/02/04 11:58:04;;;;;;;2.75;0.60;;;5.00;73.20;;;;;;4892601;24;20043;-77
2023/02/04 12:04:29;;;;;;;11.20;6.93;;;4.70;72.70;;;;;;4907011;24;20081;-78
2023/02/04 12:07:05;;;;;;;1.83;0.75;;;4.70;71.50;;;;;;4755448;30;20060;-78
2023/02/04 12:09:49;;;;;;;2.17;0.40;;;4.60;70.70;;;;;;4771282;30;20056;-79
2023/02/04 12:12:44;;;;;;;1.90;0.68;;;4.70;70.50;;;;;;4752024;30;20059;-78
2023/02/04 12:16:21;;;;;;;2.60;0.98;;;4.60;69.80;;;;;;4747935;30;20063;-78
2023/02/04 12:19:40;;;;;;;2.05;0.80;;;4.50;69.70;;;;;;4670760;30;20062;-78
2023/02/04 12:26:14;;;;;;;2.00;0.55;;;3.90;69.00;;;;;;4890194;24;19933;-78
2023/02/04 12:30:03;;;;;;;2.17;0.20;;;3.70;67.60;;;;;;4777774;30;20085;-78
2023/02/04 12:32:45;;;;;;;2.08;0.30;;;4.50;68.10;;;;;;5527134;24;20042;-78
2023/02/04 12:35:42;;;;;;;3.00;0.80;;;4.50;68.70;;;;;;3223678;24;20349;31
2023/02/04 12:39:39;;;;;;;3.33;1.00;;;4.60;69.00;;;;;;2722381;24;20245;31
2023/02/04 12:42:41;;;;;;;8.50;3.50;;;4.60;68.80;;;;;;4881069;24;21211;-80
2023/02/04 12:49:38;;;;;;;3.40;1.85;;;4.20;68.40;;;;;;4766658;30;19926;-77
2023/02/04 12:52:22;;;;;;;3.13;0.60;;;3.80;67.10;;;;;;4738475;30;20102;-78
2023/02/04 12:55:05;;;;;;;1.40;0.70;;;4.70;68.30;;;;;;4730132;30;20033;-78
2023/02/04 12:57:55;;;;;;;2.53;0.75;;;4.80;67.80;;;;;;4852907;24;20059;-78
2023/02/04 13:01:00;;;;;;;1.10;0.40;;;4.60;67.70;;;;;;4749726;30;20051;-78
2023/02/04 13:04:04;;;;;;;1.98;0.63;;;4.70;67.00;;;;;;4720052;30;20049;-78
2023/02/04 13:07:22;;;;;;;2.20;0.63;;;4.80;67.10;;;;;;4700390;30;20580;-78
2023/02/04 13:13:24;;;;;;;1.75;0.52;;;4.50;64.40;;;;;;4699318;30;20121;-77
2023/02/04 13:16:07;;;;;;;1.40;0.38;;;4.40;64.50;;;;;;4702196;30;20077;-78
2023/02/04 13:19:11;;;;;;;1.42;0.38;;;4.70;65.00;;;;;;4807846;24;20062;-79
2023/02/04 13:22:09;;;;;;;0.95;0.30;;;4.60;65.50;;;;;;4755932;30;20056;-77
2023/02/04 13:24:59;;;;;;;1.98;0.40;;;4.40;64.20;;;;;;4752993;30;20066;-78
2023/02/04 13:28:40;;;;;;;1.33;0.35;;;4.60;64.60;;;;;;4700180;30;20058;-77
2023/02/04 13:34:57;;;;;;;3.03;1.08;;;4.40;65.60;;;;;;4876609;24;20055;-78
2023/02/04 13:37:36;;;;;;;3.60;0.82;;;4.40;66.90;;;;;;4805680;24;20104;-77
2023/02/04 13:40:27;;;;;;;9.10;4.57;;;4.00;67.10;;;;;;4842604;24;20090;-77
2023/02/04 13:43:00;;;;;;;3.75;1.20;;;4.40;66.80;;;;;;5175381;24;20056;-78
2023/02/04 13:46:27;;;;;;;4.88;1.38;;;4.40;66.40;;;;;;4793979;24;20040;-78
2023/02/04 13:49:49;;;;;;;1.88;0.40;;;4.30;64.80;;;;;;4705014;30;20134;-78
2023/02/04 13:52:26;;;;;;;6.72;2.22;;;4.10;61.00;;;;;;4718569;30;20065;-78
2023/02/04 13:55:04;;;;;;;5.93;1.45;;;4.00;61.00;;;;;;4705993;30;20102;-78
2023/02/04 13:58:08;;;;;;;5.95;1.75;;;3.90;60.40;;;;;;4707808;30;20108;-78
2023/02/04 14:04:31;;;;;;;3.50;1.10;;;3.90;62.50;;;;;;4809032;24;20149;-78
2023/02/04 14:13:44;;;;;;;2.50;1.20;;;3.70;63.10;;;;;;5021921;24;20127;-78
2023/02/04 14:20:19;;;;;;;3.95;1.23;;;3.90;64.30;;;;;;3254481;24;20316;-77
2023/02/04 14:23:05;;;;;;;6.30;1.92;;;3.90;64.50;;;;;;4789485;24;20064;-79
2023/02/04 14:26:08;;;;;;;3.67;1.27;;;4.10;64.10;;;;;;4730814;30;20071;-79
2023/02/04 14:32:42;;;;;;;5.78;2.00;;;4.00;64.00;;;;;;4713502;30;20037;-78
2023/02/04 14:35:40;;;;;;;4.35;1.13;;;3.90;63.90;;;;;;4676849;30;20081;-79
2023/02/04 14:38:10;;;;;;;4.03;1.90;;;3.80;62.90;;;;;;4679564;30;20050;-79
2023/02/04 14:40:48;;;;;;;4.82;1.70;;;3.70;61.90;;;;;;4678740;30;20062;-79
2023/02/04 14:43:20;;;;;;;6.75;2.85;;;3.60;61.70;;;;;;4678113;30;20052;-79
2023/02/04 14:45:50;;;;;;;2.75;1.02;;;3.70;61.70;;;;;;4659677;30;20137;-78
2023/02/04 14:48:53;;;;;;;3.00;0.85;;;3.50;61.00;;;;;;4678823;30;20068;-79
2023/02/04 14:51:29;;;;;;;3.42;1.10;;;3.40;61.70;;;;;;4677278;30;20034;-79
2023/02/04 14:54:01;;;;;;;4.13;0.65;;;3.40;61.50;;;;;;4700214;30;20081;-79
2023/02/04 15:00:30;;;;;;;4.68;1.88;;;3.30;62.90;;;;;;5411828;24;20123;-77
2023/02/04 15:06:46;;;;;;;17.55;9.95;;;3.20;64.80;;;;;;4785851;30;20056;-77
2023/02/04 15:09:27;;;;;;;12.32;6.80;;;3.10;65.10;;;;;;4782633;30;20047;-78
2023/02/04 15:19:30;;;;;;;4.03;2.05;;;2.90;66.40;;;;;;5085164;24;20052;-78
2023/02/04 15:22:21;;;;;;;41.55;17.90;;;2.80;66.90;;;;;;4729878;30;20061;-78
2023/02/04 15:26:08;;;;;;;5.43;1.58;;;2.70;67.10;;;;;;4700028;30;20046;-78
2023/02/04 15:29:13;;;;;;;9.02;2.25;;;2.70;65.70;;;;;;5067947;24;20036;-78
2023/02/04 15:39:08;;;;;;;5.20;2.22;;;2.60;67.00;;;;;;4783629;29;20062;-78
2023/02/04 15:45:20;;;;;;;4.05;1.40;;;2.50;66.30;;;;;;3206288;24;20326;31
2023/02/04 15:47:54;;;;;;;5.32;1.50;;;2.40;66.40;;;;;;4730455;30;20074;-77
2023/02/04 15:50:29;;;;;;;4.75;1.67;;;2.40;66.60;;;;;;4716119;30;20535;-80
2023/02/04 15:53:05;;;;;;;5.95;1.63;;;2.30;65.40;;;;;;4724405;30;20123;-77
2023/02/04 15:59:29;;;;;;;3.40;1.60;;;2.20;66.10;;;;;;4878828;24;20044;-78
2023/02/04 16:02:37;;;;;;;5.28;1.60;;;2.10;65.90;;;;;;4792573;24;20048;-79
2023/02/04 16:05:33;;;;;;;4.05;1.02;;;2.20;66.00;;;;;;4750828;30;20051;-78
2023/02/04 16:08:14;;;;;;;3.63;1.23;;;2.20;65.70;;;;;;4684709;30;20034;-79
2023/02/04 16:11:06;;;;;;;3.78;1.73;;;2.20;65.20;;;;;;4858775;24;20071;-78
2023/02/04 16:14:01;;;;;;;8.63;2.25;;;2.10;65.40;;;;;;4723216;30;20432;-78
2023/02/04 16:17:15;;;;;;;;;;;2.10;65.20;;;;;;5315101;24;20052;-78
2023/02/04 16:23:53;;;;;;;3.63;1.20;;;2.00;66.10;;;;;;5216993;24;20091;-79
2023/02/04 16:27:16;;;;;;;7.05;2.85;;;2.00;65.50;;;;;;5142646;24;20136;31
2023/02/04 16:29:53;;;;;;;44.95;15.80;;;2.00;66.30;;;;;;4717816;30;19927;-78
2023/02/04 16:33:14;;;;;;;91.18;30.90;;;1.90;65.80;;;;;;5294729;24;20071;-78
2023/02/04 16:36:22;;;;;;;48.53;16.75;;;1.50;65.80;;;;;;5120320;24;20051;31
2023/02/04 16:38:54;;;;;;;26.25;13.35;;;1.80;66.60;;;;;;4712183;30;20026;-78
2023/02/04 16:44:49;;;;;;;8.18;4.78;;;1.70;65.30;;;;;;4763443;30;20120;-79
2023/02/04 16:47:27;;;;;;;5.30;2.38;;;1.80;64.80;;;;;;4750803;30;20083;-79
2023/02/04 16:56:20;;;;;;;5.20;1.60;;;1.70;64.80;;;;;;4769107;24;20042;31
2023/02/04 17:02:39;;;;;;;8.48;3.67;;;1.60;65.90;;;;;;4746847;30;20067;-78
2023/02/04 17:05:24;;;;;;;18.75;8.10;;;1.70;65.80;;;;;;4928488;24;20056;-79
2023/02/04 17:19:48;;;;;;;5.60;3.28;;;1.50;67.10;;;;;;4771327;24;20071;-82
2023/02/04 17:23:28;;;;;;;6.53;3.45;;;1.40;66.30;;;;;;5033483;24;20213;-79
2023/02/04 17:26:14;;;;;;;15.43;8.60;;;1.60;66.40;;;;;;5664558;24;20037;31
2023/02/04 17:32:27;;;;;;;6.73;2.30;;;1.40;67.60;;;;;;5776924;24;20038;-79
2023/02/04 17:35:27;;;;;;;5.10;1.92;;;1.40;67.40;;;;;;2154822;24;20353;-80
2023/02/04 18:38:25;;;;;;;12.10;5.40;;;1.00;72.40;;;;;;5459484;24;20035;31
2023/02/04 19:10:52;;;;;;;7.57;3.35;;;0.70;76.70;;;;;;2038606;24;20245;-79
2023/02/04 19:57:34;;;;;;;23.55;10.40;;;0.50;77.30;;;;;;5750399;24;20923;31
2023/02/04 20:39:53;;;;;;;14.95;6.22;;;0.20;80.30;;;;;;1381272;24;20346;-78
2023/02/04 20:49:09;;;;;;;28.67;11.48;;;0.10;81.90;;;;;;5420161;24;20066;31
2023/02/04 21:20:57;;;;;;;8.82;2.55;;;0.00;84.80;;;;;;4771168;24;20356;-79
2023/02/04 21:27:31;;;;;;;7.13;1.92;;;0.00;85.40;;;;;;5515833;24;20036;31
2023/02/04 22:02:30;;;;;;;14.75;8.00;;;-0.20;86.90;;;;;;5333854;24;20027;31
2023/02/04 23:08:53;;;;;;;2.97;0.90;;;-0.20;87.00;;;;;;5484918;24;20033;31
2023/02/04 23:11:44;;;;;;;4.22;1.55;;;-0.20;87.40;;;;;;5178561;24;20027;31
2023/02/04 23:24:55;;;;;;;3.00;1.00;;;-0.20;87.60;;;;;;5590988;24;20160;31
2023/02/04 23:27:37;;;;;;;3.40;1.05;;;-0.30;87.90;;;;;;4725580;30;20053;-78
2023/02/04 23:30:09;;;;;;;2.80;0.88;;;-0.30;87.80;;;;;;5450806;24;20109;-80
2023/02/04 23:32:47;;;;;;;2.90;0.67;;;-0.30;88.00;;;;;;5317373;24;20973;31
2023/02/04 23:35:21;;;;;;;3.15;1.10;;;-0.30;88.20;;;;;;5043906;24;20057;31
2023/02/04 23:37:49;;;;;;;4.50;1.17;;;-0.30;88.20;;;;;;5277821;25;20070;-79
2023/02/04 23:40:24;;;;;;;3.55;1.40;;;-0.30;88.30;;;;;;4745810;30;20056;-79
2023/02/04 23:42:54;;;;;;;4.80;1.48;;;-0.30;88.40;;;;;;5317790;24;20061;-79
2023/02/04 23:45:29;;;;;;;3.20;0.80;;;-0.70;88.30;;;;;;5196953;24;20112;-77
2023/02/04 23:48:37;;;;;;;4.25;1.08;;;-1.40;87.60;;;;;;5022036;24;20296;31
